sensor_id;sensor_type;location;lat;lon;timestamp;P1;durP1;ratioP1;P2;durP2;ratioP2
48629;SDS011;34426;52.180;4.462;2022-07-29T00:01:00;6.05;;;1.27;;
48629;SDS011;34426;52.180;4.462;2022-07-29T00:03:28;3.35;;;0.93;;
48629;SDS011;34426;52.180;4.462;2022-07-29T00:05:55;5.03;;;0.75;;
48629;SDS011;34426;52.180;4.462;2022-07-29T00:08:22;5.05;;;1.10;;
48629;SDS011;34426;52.180;4.462;2022-07-29T00:10:50;4.65;;;0.90;;
48629;SDS011;34426;52.180;4.462;2022-07-29T00:13:19;7.88;;;1.00;;
48629;SDS011;34426;52.180;4.462;2022-07-29T00:15:46;8.18;;;1.15;;
48629;SDS011;34426;52.180;4.462;2022-07-29T00:18:14;5.45;;;0.70;;
48629;SDS011;34426;52.180;4.462;2022-07-29T00:20:42;2.88;;;0.88;;
48629;SDS011;34426;52.180;4.462;2022-07-29T00:23:10;4.65;;;1.02;;
48629;SDS011;34426;52.180;4.462;2022-07-29T00:25:37;4.10;;;0.98;;
48629;SDS011;34426;52.180;4.462;2022-07-29T00:28:05;6.38;;;1.38;;
48629;SDS011;34426;52.180;4.462;2022-07-29T00:30:34;4.20;;;0.98;;
48629;SDS011;34426;52.180;4.462;2022-07-29T00:33:02;8.02;;;1.02;;
48629;SDS011;34426;52.180;4.462;2022-07-29T00:35:29;7.10;;;1.13;;
48629;SDS011;34426;52.180;4.462;2022-07-29T00:37:56;8.90;;;1.95;;
48629;SDS011;34426;52.180;4.462;2022-07-29T00:40:24;8.57;;;1.20;;
48629;SDS011;34426;52.180;4.462;2022-07-29T00:42:51;7.10;;;1.35;;
48629;SDS011;34426;52.180;4.462;2022-07-29T00:45:19;5.97;;;1.10;;
48629;SDS011;34426;52.180;4.462;2022-07-29T00:47:48;5.55;;;1.27;;
48629;SDS011;34426;52.180;4.462;2022-07-29T00:50:16;1.83;;;0.90;;
48629;SDS011;34426;52.180;4.462;2022-07-29T00:52:43;9.63;;;0.95;;
48629;SDS011;34426;52.180;4.462;2022-07-29T00:55:12;6.30;;;1.20;;
48629;SDS011;34426;52.180;4.462;2022-07-29T00:57:40;4.30;;;1.17;;
48629;SDS011;34426;52.180;4.462;2022-07-29T01:00:10;5.10;;;1.20;;
48629;SDS011;34426;52.180;4.462;2022-07-29T01:02:41;5.50;;;1.10;;
48629;SDS011;34426;52.180;4.462;2022-07-29T01:05:10;3.15;;;1.00;;
48629;SDS011;34426;52.180;4.462;2022-07-29T01:07:38;7.55;;;1.05;;
48629;SDS011;34426;52.180;4.462;2022-07-29T01:10:07;7.45;;;1.15;;
48629;SDS011;34426;52.180;4.462;2022-07-29T01:12:38;6.32;;;0.90;;
48629;SDS011;34426;52.180;4.462;2022-07-29T01:15:06;3.67;;;0.90;;
48629;SDS011;34426;52.180;4.462;2022-07-29T01:17:36;3.47;;;1.10;;
48629;SDS011;34426;52.180;4.462;2022-07-29T01:20:12;4.43;;;1.05;;
48629;SDS011;34426;52.180;4.462;2022-07-29T01:23:00;6.63;;;1.20;;
48629;SDS011;34426;52.180;4.462;2022-07-29T01:25:48;4.18;;;0.90;;
48629;SDS011;34426;52.180;4.462;2022-07-29T01:31:33;11.10;;;1.25;;
48629;SDS011;34426;52.180;4.462;2022-07-29T01:34:05;6.97;;;1.30;;
48629;SDS011;34426;52.180;4.462;2022-07-29T01:36:35;4.72;;;1.13;;
48629;SDS011;34426;52.180;4.462;2022-07-29T01:39:07;3.55;;;1.20;;
48629;SDS011;34426;52.180;4.462;2022-07-29T01:41:37;2.60;;;0.80;;
48629;SDS011;34426;52.180;4.462;2022-07-29T01:44:15;5.07;;;1.17;;
48629;SDS011;34426;52.180;4.462;2022-07-29T01:46:50;2.47;;;0.85;;
48629;SDS011;34426;52.180;4.462;2022-07-29T01:49:22;6.95;;;1.60;;
48629;SDS011;34426;52.180;4.462;2022-07-29T01:51:53;4.50;;;1.20;;
48629;SDS011;34426;52.180;4.462;2022-07-29T01:54:24;3.97;;;1.00;;
48629;SDS011;34426;52.180;4.462;2022-07-29T01:56:56;6.25;;;1.13;;
48629;SDS011;34426;52.180;4.462;2022-07-29T01:59:28;3.55;;;0.85;;
48629;SDS011;34426;52.180;4.462;2022-07-29T02:01:57;6.97;;;1.35;;
48629;SDS011;34426;52.180;4.462;2022-07-29T02:04:25;3.40;;;0.82;;
48629;SDS011;34426;52.180;4.462;2022-07-29T02:06:54;5.15;;;1.17;;
48629;SDS011;34426;52.180;4.462;2022-07-29T02:09:26;3.38;;;1.02;;
48629;SDS011;34426;52.180;4.462;2022-07-29T02:11:55;14.55;;;1.67;;
48629;SDS011;34426;52.180;4.462;2022-07-29T02:14:23;3.60;;;1.10;;
48629;SDS011;34426;52.180;4.462;2022-07-29T02:16:54;4.35;;;1.27;;
48629;SDS011;34426;52.180;4.462;2022-07-29T02:19:24;4.93;;;1.15;;
48629;SDS011;34426;52.180;4.462;2022-07-29T02:21:53;10.18;;;1.30;;
48629;SDS011;34426;52.180;4.462;2022-07-29T02:24:23;8.60;;;1.10;;
48629;SDS011;34426;52.180;4.462;2022-07-29T02:26:53;4.85;;;1.20;;
48629;SDS011;34426;52.180;4.462;2022-07-29T02:29:22;9.90;;;2.10;;
48629;SDS011;34426;52.180;4.462;2022-07-29T02:31:52;13.55;;;1.50;;
48629;SDS011;34426;52.180;4.462;2022-07-29T02:34:22;9.15;;;1.70;;
48629;SDS011;34426;52.180;4.462;2022-07-29T02:36:51;4.72;;;1.20;;
48629;SDS011;34426;52.180;4.462;2022-07-29T02:39:21;6.50;;;1.50;;
48629;SDS011;34426;52.180;4.462;2022-07-29T02:41:50;4.50;;;1.38;;
48629;SDS011;34426;52.180;4.462;2022-07-29T02:44:21;4.15;;;1.42;;
48629;SDS011;34426;52.180;4.462;2022-07-29T02:46:53;6.93;;;1.17;;
48629;SDS011;34426;52.180;4.462;2022-07-29T02:49:31;2.17;;;1.05;;
48629;SDS011;34426;52.180;4.462;2022-07-29T02:52:02;4.47;;;1.50;;
48629;SDS011;34426;52.180;4.462;2022-07-29T02:54:36;7.90;;;1.67;;
48629;SDS011;34426;52.180;4.462;2022-07-29T02:59:35;3.63;;;1.23;;
48629;SDS011;34426;52.180;4.462;2022-07-29T03:02:09;4.93;;;1.48;;
48629;SDS011;34426;52.180;4.462;2022-07-29T03:04:40;5.18;;;1.42;;
48629;SDS011;34426;52.180;4.462;2022-07-29T03:07:10;3.72;;;1.10;;
48629;SDS011;34426;52.180;4.462;2022-07-29T03:09:41;6.75;;;1.33;;
48629;SDS011;34426;52.180;4.462;2022-07-29T03:12:11;4.88;;;1.60;;
48629;SDS011;34426;52.180;4.462;2022-07-29T03:14:39;5.13;;;1.33;;
48629;SDS011;34426;52.180;4.462;2022-07-29T03:17:09;3.50;;;1.15;;
48629;SDS011;34426;52.180;4.462;2022-07-29T03:19:39;3.03;;;1.50;;
48629;SDS011;34426;52.180;4.462;2022-07-29T03:22:07;6.22;;;1.52;;
48629;SDS011;34426;52.180;4.462;2022-07-29T03:24:35;5.88;;;1.70;;
48629;SDS011;34426;52.180;4.462;2022-07-29T03:27:03;6.90;;;1.67;;
48629;SDS011;34426;52.180;4.462;2022-07-29T03:29:33;4.60;;;1.80;;
48629;SDS011;34426;52.180;4.462;2022-07-29T03:32:01;4.47;;;1.50;;
48629;SDS011;34426;52.180;4.462;2022-07-29T03:34:31;6.65;;;1.45;;
48629;SDS011;34426;52.180;4.462;2022-07-29T03:36:58;5.15;;;1.92;;
48629;SDS011;34426;52.180;4.462;2022-07-29T03:39:27;6.93;;;1.85;;
48629;SDS011;34426;52.180;4.462;2022-07-29T03:44:25;6.80;;;1.70;;
48629;SDS011;34426;52.180;4.462;2022-07-29T03:46:54;7.40;;;2.05;;
48629;SDS011;34426;52.180;4.462;2022-07-29T03:49:31;3.78;;;1.70;;
48629;SDS011;34426;52.180;4.462;2022-07-29T03:52:02;5.80;;;1.70;;
48629;SDS011;34426;52.180;4.462;2022-07-29T03:54:29;20.90;;;2.70;;
48629;SDS011;34426;52.180;4.462;2022-07-29T03:56:57;6.35;;;1.60;;
48629;SDS011;34426;52.180;4.462;2022-07-29T03:59:27;5.82;;;1.90;;
48629;SDS011;34426;52.180;4.462;2022-07-29T04:01:56;7.75;;;2.03;;
48629;SDS011;34426;52.180;4.462;2022-07-29T04:04:25;4.63;;;1.55;;
48629;SDS011;34426;52.180;4.462;2022-07-29T04:06:55;6.38;;;1.88;;
48629;SDS011;34426;52.180;4.462;2022-07-29T04:09:23;5.93;;;1.67;;
48629;SDS011;34426;52.180;4.462;2022-07-29T04:11:50;4.00;;;1.60;;
48629;SDS011;34426;52.180;4.462;2022-07-29T04:14:24;6.60;;;1.70;;
48629;SDS011;34426;52.180;4.462;2022-07-29T04:16:52;5.55;;;1.50;;
48629;SDS011;34426;52.180;4.462;2022-07-29T04:19:19;4.57;;;1.50;;
48629;SDS011;34426;52.180;4.462;2022-07-29T04:21:46;8.05;;;1.85;;
48629;SDS011;34426;52.180;4.462;2022-07-29T04:24:15;6.90;;;1.95;;
48629;SDS011;34426;52.180;4.462;2022-07-29T04:26:45;4.22;;;1.50;;
48629;SDS011;34426;52.180;4.462;2022-07-29T04:29:14;3.75;;;1.67;;
48629;SDS011;34426;52.180;4.462;2022-07-29T04:31:42;3.47;;;1.30;;
48629;SDS011;34426;52.180;4.462;2022-07-29T04:34:09;6.90;;;1.88;;
48629;SDS011;34426;52.180;4.462;2022-07-29T04:36:37;4.65;;;1.52;;
48629;SDS011;34426;52.180;4.462;2022-07-29T04:39:06;5.30;;;2.25;;
48629;SDS011;34426;52.180;4.462;2022-07-29T04:41:38;11.02;;;2.95;;
48629;SDS011;34426;52.180;4.462;2022-07-29T04:44:05;6.78;;;2.03;;
48629;SDS011;34426;52.180;4.462;2022-07-29T04:46:35;4.85;;;1.80;;
48629;SDS011;34426;52.180;4.462;2022-07-29T04:49:02;6.65;;;1.65;;
48629;SDS011;34426;52.180;4.462;2022-07-29T04:51:29;4.22;;;1.40;;
48629;SDS011;34426;52.180;4.462;2022-07-29T04:53:57;4.57;;;1.42;;
48629;SDS011;34426;52.180;4.462;2022-07-29T04:56:24;6.30;;;1.65;;
48629;SDS011;34426;52.180;4.462;2022-07-29T04:58:53;4.78;;;1.70;;
48629;SDS011;34426;52.180;4.462;2022-07-29T05:01:21;4.75;;;1.30;;
48629;SDS011;34426;52.180;4.462;2022-07-29T05:03:49;4.75;;;1.30;;
48629;SDS011;34426;52.180;4.462;2022-07-29T05:06:16;4.07;;;1.33;;
48629;SDS011;34426;52.180;4.462;2022-07-29T05:08:43;7.32;;;1.38;;
48629;SDS011;34426;52.180;4.462;2022-07-29T05:11:11;5.45;;;1.33;;
48629;SDS011;34426;52.180;4.462;2022-07-29T05:13:39;3.00;;;1.10;;
48629;SDS011;34426;52.180;4.462;2022-07-29T05:16:10;6.35;;;1.60;;
48629;SDS011;34426;52.180;4.462;2022-07-29T05:18:37;4.32;;;1.55;;
48629;SDS011;34426;52.180;4.462;2022-07-29T05:21:04;4.63;;;1.40;;
48629;SDS011;34426;52.180;4.462;2022-07-29T05:23:33;4.22;;;1.20;;
48629;SDS011;34426;52.180;4.462;2022-07-29T05:26:00;4.53;;;1.40;;
48629;SDS011;34426;52.180;4.462;2022-07-29T05:28:28;5.93;;;1.40;;
48629;SDS011;34426;52.180;4.462;2022-07-29T05:31:01;4.85;;;1.38;;
48629;SDS011;34426;52.180;4.462;2022-07-29T05:33:46;4.72;;;1.42;;
48629;SDS011;34426;52.180;4.462;2022-07-29T05:36:13;4.15;;;1.50;;
48629;SDS011;34426;52.180;4.462;2022-07-29T05:38:40;3.08;;;1.38;;
48629;SDS011;34426;52.180;4.462;2022-07-29T05:41:08;7.10;;;1.50;;
48629;SDS011;34426;52.180;4.462;2022-07-29T05:43:36;6.13;;;1.50;;
48629;SDS011;34426;52.180;4.462;2022-07-29T05:46:04;7.38;;;1.63;;
48629;SDS011;34426;52.180;4.462;2022-07-29T05:48:32;3.83;;;1.63;;
48629;SDS011;34426;52.180;4.462;2022-07-29T05:51:01;3.72;;;1.33;;
48629;SDS011;34426;52.180;4.462;2022-07-29T05:53:29;3.65;;;1.52;;
48629;SDS011;34426;52.180;4.462;2022-07-29T05:55:56;6.18;;;1.60;;
48629;SDS011;34426;52.180;4.462;2022-07-29T05:58:24;5.90;;;1.70;;
48629;SDS011;34426;52.180;4.462;2022-07-29T06:00:51;5.85;;;1.50;;
48629;SDS011;34426;52.180;4.462;2022-07-29T06:03:18;8.13;;;1.73;;
48629;SDS011;34426;52.180;4.462;2022-07-29T06:05:46;5.50;;;1.65;;
48629;SDS011;34426;52.180;4.462;2022-07-29T06:08:15;6.53;;;1.33;;
48629;SDS011;34426;52.180;4.462;2022-07-29T06:10:43;10.98;;;2.20;;
48629;SDS011;34426;52.180;4.462;2022-07-29T06:13:10;4.93;;;1.65;;
48629;SDS011;34426;52.180;4.462;2022-07-29T06:15:38;4.00;;;1.40;;
48629;SDS011;34426;52.180;4.462;2022-07-29T06:18:05;4.38;;;1.55;;
48629;SDS011;34426;52.180;4.462;2022-07-29T06:20:33;6.70;;;1.90;;
48629;SDS011;34426;52.180;4.462;2022-07-29T06:23:00;4.85;;;1.10;;
48629;SDS011;34426;52.180;4.462;2022-07-29T06:25:30;5.25;;;1.55;;
48629;SDS011;34426;52.180;4.462;2022-07-29T06:27:57;6.20;;;1.88;;
48629;SDS011;34426;52.180;4.462;2022-07-29T06:30:25;6.18;;;1.52;;
48629;SDS011;34426;52.180;4.462;2022-07-29T06:32:53;7.07;;;1.58;;
48629;SDS011;34426;52.180;4.462;2022-07-29T06:35:20;7.82;;;1.80;;
48629;SDS011;34426;52.180;4.462;2022-07-29T06:37:50;5.20;;;1.80;;
48629;SDS011;34426;52.180;4.462;2022-07-29T06:40:18;4.75;;;1.45;;
48629;SDS011;34426;52.180;4.462;2022-07-29T06:42:47;12.68;;;1.73;;
48629;SDS011;34426;52.180;4.462;2022-07-29T06:45:14;7.63;;;1.63;;
48629;SDS011;34426;52.180;4.462;2022-07-29T06:47:45;4.03;;;1.58;;
48629;SDS011;34426;52.180;4.462;2022-07-29T06:50:12;4.93;;;1.65;;
48629;SDS011;34426;52.180;4.462;2022-07-29T06:52:40;6.55;;;2.20;;
48629;SDS011;34426;52.180;4.462;2022-07-29T06:55:07;3.40;;;1.70;;
48629;SDS011;34426;52.180;4.462;2022-07-29T06:57:35;8.20;;;1.63;;
48629;SDS011;34426;52.180;4.462;2022-07-29T07:00:05;7.18;;;1.67;;
48629;SDS011;34426;52.180;4.462;2022-07-29T07:02:33;4.32;;;1.80;;
48629;SDS011;34426;52.180;4.462;2022-07-29T07:05:00;6.57;;;1.80;;
48629;SDS011;34426;52.180;4.462;2022-07-29T07:07:29;4.85;;;1.77;;
48629;SDS011;34426;52.180;4.462;2022-07-29T07:09:57;6.07;;;1.85;;
48629;SDS011;34426;52.180;4.462;2022-07-29T07:12:24;7.70;;;2.92;;
48629;SDS011;34426;52.180;4.462;2022-07-29T07:14:52;4.43;;;1.52;;
48629;SDS011;34426;52.180;4.462;2022-07-29T07:20:22;4.53;;;1.60;;
48629;SDS011;34426;52.180;4.462;2022-07-29T07:22:50;6.72;;;1.50;;
48629;SDS011;34426;52.180;4.462;2022-07-29T07:25:17;5.18;;;1.88;;
48629;SDS011;34426;52.180;4.462;2022-07-29T07:27:45;6.53;;;1.67;;
48629;SDS011;34426;52.180;4.462;2022-07-29T07:30:12;3.20;;;1.58;;
48629;SDS011;34426;52.180;4.462;2022-07-29T07:32:41;3.60;;;1.42;;
48629;SDS011;34426;52.180;4.462;2022-07-29T07:35:09;8.20;;;2.25;;
48629;SDS011;34426;52.180;4.462;2022-07-29T07:37:38;6.90;;;1.73;;
48629;SDS011;34426;52.180;4.462;2022-07-29T07:40:06;5.75;;;2.70;;
48629;SDS011;34426;52.180;4.462;2022-07-29T07:42:35;13.68;;;2.22;;
48629;SDS011;34426;52.180;4.462;2022-07-29T07:45:02;8.95;;;2.20;;
48629;SDS011;34426;52.180;4.462;2022-07-29T07:47:30;6.90;;;2.05;;
48629;SDS011;34426;52.180;4.462;2022-07-29T07:49:58;7.13;;;2.10;;
48629;SDS011;34426;52.180;4.462;2022-07-29T07:52:25;8.27;;;2.00;;
48629;SDS011;34426;52.180;4.462;2022-07-29T07:54:54;5.07;;;1.90;;
48629;SDS011;34426;52.180;4.462;2022-07-29T07:57:22;8.05;;;2.30;;
48629;SDS011;34426;52.180;4.462;2022-07-29T07:59:50;8.20;;;2.10;;
48629;SDS011;34426;52.180;4.462;2022-07-29T08:02:18;9.43;;;2.38;;
48629;SDS011;34426;52.180;4.462;2022-07-29T08:04:46;11.82;;;2.47;;
48629;SDS011;34426;52.180;4.462;2022-07-29T08:07:17;5.60;;;2.05;;
48629;SDS011;34426;52.180;4.462;2022-07-29T08:09:46;9.88;;;2.15;;
48629;SDS011;34426;52.180;4.462;2022-07-29T08:12:15;8.77;;;2.78;;
48629;SDS011;34426;52.180;4.462;2022-07-29T08:14:43;8.68;;;2.28;;
48629;SDS011;34426;52.180;4.462;2022-07-29T08:17:10;7.13;;;2.10;;
48629;SDS011;34426;52.180;4.462;2022-07-29T08:19:37;11.25;;;2.30;;
48629;SDS011;34426;52.180;4.462;2022-07-29T08:22:05;11.68;;;2.28;;
48629;SDS011;34426;52.180;4.462;2022-07-29T08:24:33;6.93;;;2.28;;
48629;SDS011;34426;52.180;4.462;2022-07-29T08:27:00;4.38;;;1.80;;
48629;SDS011;34426;52.180;4.462;2022-07-29T08:29:29;12.00;;;2.03;;
48629;SDS011;34426;52.180;4.462;2022-07-29T08:31:57;9.30;;;1.98;;
48629;SDS011;34426;52.180;4.462;2022-07-29T08:34:24;7.35;;;1.70;;
48629;SDS011;34426;52.180;4.462;2022-07-29T08:36:52;5.63;;;2.15;;
48629;SDS011;34426;52.180;4.462;2022-07-29T08:39:19;10.65;;;1.52;;
48629;SDS011;34426;52.180;4.462;2022-07-29T08:41:48;6.57;;;1.60;;
48629;SDS011;34426;52.180;4.462;2022-07-29T08:44:17;7.65;;;1.50;;
48629;SDS011;34426;52.180;4.462;2022-07-29T08:46:47;6.03;;;2.22;;
48629;SDS011;34426;52.180;4.462;2022-07-29T08:49:19;7.53;;;1.65;;
48629;SDS011;34426;52.180;4.462;2022-07-29T08:51:46;6.43;;;1.45;;
48629;SDS011;34426;52.180;4.462;2022-07-29T08:54:16;13.48;;;2.05;;
48629;SDS011;34426;52.180;4.462;2022-07-29T08:56:44;6.85;;;1.73;;
48629;SDS011;34426;52.180;4.462;2022-07-29T08:59:14;10.02;;;2.25;;
48629;SDS011;34426;52.180;4.462;2022-07-29T09:01:45;8.50;;;1.40;;
48629;SDS011;34426;52.180;4.462;2022-07-29T09:04:18;8.43;;;1.67;;
48629;SDS011;34426;52.180;4.462;2022-07-29T09:06:47;5.13;;;2.00;;
48629;SDS011;34426;52.180;4.462;2022-07-29T09:09:17;5.57;;;1.42;;
48629;SDS011;34426;52.180;4.462;2022-07-29T09:11:44;7.20;;;1.35;;
48629;SDS011;34426;52.180;4.462;2022-07-29T09:14:17;8.05;;;1.77;;
48629;SDS011;34426;52.180;4.462;2022-07-29T09:16:47;4.53;;;1.50;;
48629;SDS011;34426;52.180;4.462;2022-07-29T09:19:23;8.10;;;1.83;;
48629;SDS011;34426;52.180;4.462;2022-07-29T09:21:53;14.43;;;3.10;;
48629;SDS011;34426;52.180;4.462;2022-07-29T09:24:22;9.15;;;2.08;;
48629;SDS011;34426;52.180;4.462;2022-07-29T09:26:50;4.38;;;1.73;;
48629;SDS011;34426;52.180;4.462;2022-07-29T09:29:19;12.60;;;1.90;;
48629;SDS011;34426;52.180;4.462;2022-07-29T09:31:51;6.22;;;2.03;;
48629;SDS011;34426;52.180;4.462;2022-07-29T09:34:22;4.93;;;2.08;;
48629;SDS011;34426;52.180;4.462;2022-07-29T09:36:52;6.32;;;1.83;;
48629;SDS011;34426;52.180;4.462;2022-07-29T09:39:27;7.63;;;1.95;;
48629;SDS011;34426;52.180;4.462;2022-07-29T09:41:56;9.40;;;2.58;;
48629;SDS011;34426;52.180;4.462;2022-07-29T09:44:27;4.32;;;2.00;;
48629;SDS011;34426;52.180;4.462;2022-07-29T09:49:49;8.65;;;2.08;;
48629;SDS011;34426;52.180;4.462;2022-07-29T09:52:19;5.93;;;1.95;;
48629;SDS011;34426;52.180;4.462;2022-07-29T09:54:46;4.72;;;1.88;;
48629;SDS011;34426;52.180;4.462;2022-07-29T09:57:24;9.05;;;2.30;;
48629;SDS011;34426;52.180;4.462;2022-07-29T09:59:56;7.57;;;2.20;;
48629;SDS011;34426;52.180;4.462;2022-07-29T10:02:32;9.85;;;2.30;;
48629;SDS011;34426;52.180;4.462;2022-07-29T10:05:02;9.93;;;1.75;;
48629;SDS011;34426;52.180;4.462;2022-07-29T10:07:43;5.10;;;1.67;;
48629;SDS011;34426;52.180;4.462;2022-07-29T10:10:17;5.78;;;1.75;;
48629;SDS011;34426;52.180;4.462;2022-07-29T10:13:03;9.65;;;1.95;;
48629;SDS011;34426;52.180;4.462;2022-07-29T10:15:32;9.57;;;2.30;;
48629;SDS011;34426;52.180;4.462;2022-07-29T10:18:00;10.85;;;2.55;;
48629;SDS011;34426;52.180;4.462;2022-07-29T10:20:27;9.43;;;1.88;;
48629;SDS011;34426;52.180;4.462;2022-07-29T10:22:53;10.55;;;2.47;;
48629;SDS011;34426;52.180;4.462;2022-07-29T10:25:20;11.70;;;2.00;;
48629;SDS011;34426;52.180;4.462;2022-07-29T10:27:46;6.47;;;2.22;;
48629;SDS011;34426;52.180;4.462;2022-07-29T10:30:13;7.88;;;2.47;;
48629;SDS011;34426;52.180;4.462;2022-07-29T10:32:50;11.63;;;2.22;;
48629;SDS011;34426;52.180;4.462;2022-07-29T10:35:43;10.25;;;2.05;;
48629;SDS011;34426;52.180;4.462;2022-07-29T10:41:21;5.85;;;1.80;;
48629;SDS011;34426;52.180;4.462;2022-07-29T10:44:08;12.23;;;2.38;;
48629;SDS011;34426;52.180;4.462;2022-07-29T10:46:40;6.10;;;1.85;;
48629;SDS011;34426;52.180;4.462;2022-07-29T10:49:08;8.23;;;1.77;;
48629;SDS011;34426;52.180;4.462;2022-07-29T10:51:57;6.50;;;1.90;;
48629;SDS011;34426;52.180;4.462;2022-07-29T10:54:44;5.18;;;1.48;;
48629;SDS011;34426;52.180;4.462;2022-07-29T10:57:13;4.90;;;1.58;;
48629;SDS011;34426;52.180;4.462;2022-07-29T10:59:42;6.78;;;1.58;;
48629;SDS011;34426;52.180;4.462;2022-07-29T11:05:11;8.52;;;2.20;;
48629;SDS011;34426;52.180;4.462;2022-07-29T11:10:45;8.63;;;2.00;;
48629;SDS011;34426;52.180;4.462;2022-07-29T11:13:13;8.68;;;1.85;;
48629;SDS011;34426;52.180;4.462;2022-07-29T11:16:13;11.93;;;2.25;;
48629;SDS011;34426;52.180;4.462;2022-07-29T11:21:44;8.85;;;2.20;;
48629;SDS011;34426;52.180;4.462;2022-07-29T11:24:14;8.65;;;1.83;;
48629;SDS011;34426;52.180;4.462;2022-07-29T11:26:42;16.13;;;2.15;;
48629;SDS011;34426;52.180;4.462;2022-07-29T11:29:16;9.00;;;2.15;;
48629;SDS011;34426;52.180;4.462;2022-07-29T11:31:46;11.05;;;2.47;;
48629;SDS011;34426;52.180;4.462;2022-07-29T11:34:18;6.28;;;1.88;;
48629;SDS011;34426;52.180;4.462;2022-07-29T11:42:41;10.60;;;2.30;;
48629;SDS011;34426;52.180;4.462;2022-07-29T11:45:11;8.38;;;2.20;;
48629;SDS011;34426;52.180;4.462;2022-07-29T11:47:39;8.27;;;2.40;;
48629;SDS011;34426;52.180;4.462;2022-07-29T11:50:08;8.25;;;2.92;;
48629;SDS011;34426;52.180;4.462;2022-07-29T11:52:35;6.20;;;2.05;;
48629;SDS011;34426;52.180;4.462;2022-07-29T11:55:05;4.82;;;2.00;;
48629;SDS011;34426;52.180;4.462;2022-07-29T11:57:34;11.98;;;2.28;;
48629;SDS011;34426;52.180;4.462;2022-07-29T12:00:01;8.23;;;2.25;;
48629;SDS011;34426;52.180;4.462;2022-07-29T12:02:37;7.95;;;2.28;;
48629;SDS011;34426;52.180;4.462;2022-07-29T12:05:04;11.40;;;2.58;;
48629;SDS011;34426;52.180;4.462;2022-07-29T12:07:30;7.30;;;2.00;;
48629;SDS011;34426;52.180;4.462;2022-07-29T12:10:00;10.30;;;2.40;;
48629;SDS011;34426;52.180;4.462;2022-07-29T12:12:28;8.13;;;2.33;;
48629;SDS011;34426;52.180;4.462;2022-07-29T12:15:02;8.70;;;2.20;;
48629;SDS011;34426;52.180;4.462;2022-07-29T12:20:02;12.02;;;3.15;;
48629;SDS011;34426;52.180;4.462;2022-07-29T12:22:46;10.20;;;2.15;;
48629;SDS011;34426;52.180;4.462;2022-07-29T12:25:12;8.07;;;1.95;;
48629;SDS011;34426;52.180;4.462;2022-07-29T12:27:46;10.00;;;2.42;;
48629;SDS011;34426;52.180;4.462;2022-07-29T12:30:18;8.90;;;2.20;;
48629;SDS011;34426;52.180;4.462;2022-07-29T12:32:46;10.98;;;2.63;;
48629;SDS011;34426;52.180;4.462;2022-07-29T12:35:14;7.80;;;2.08;;
48629;SDS011;34426;52.180;4.462;2022-07-29T12:37:44;9.02;;;2.03;;
48629;SDS011;34426;52.180;4.462;2022-07-29T12:40:13;13.60;;;2.55;;
48629;SDS011;34426;52.180;4.462;2022-07-29T12:42:42;10.38;;;2.20;;
48629;SDS011;34426;52.180;4.462;2022-07-29T12:45:35;8.07;;;2.22;;
48629;SDS011;34426;52.180;4.462;2022-07-29T12:48:02;7.53;;;2.50;;
48629;SDS011;34426;52.180;4.462;2022-07-29T12:50:32;7.97;;;2.28;;
48629;SDS011;34426;52.180;4.462;2022-07-29T12:53:14;6.13;;;1.92;;
48629;SDS011;34426;52.180;4.462;2022-07-29T12:55:46;10.35;;;2.70;;
48629;SDS011;34426;52.180;4.462;2022-07-29T12:58:24;6.68;;;2.20;;
48629;SDS011;34426;52.180;4.462;2022-07-29T13:01:09;4.78;;;1.80;;
48629;SDS011;34426;52.180;4.462;2022-07-29T13:03:44;6.60;;;2.10;;
48629;SDS011;34426;52.180;4.462;2022-07-29T13:09:11;11.40;;;2.63;;
48629;SDS011;34426;52.180;4.462;2022-07-29T13:11:40;9.98;;;2.17;;
48629;SDS011;34426;52.180;4.462;2022-07-29T13:14:10;10.38;;;2.17;;
48629;SDS011;34426;52.180;4.462;2022-07-29T13:17:05;7.25;;;1.80;;
48629;SDS011;34426;52.180;4.462;2022-07-29T13:19:37;13.80;;;1.95;;
48629;SDS011;34426;52.180;4.462;2022-07-29T13:22:05;4.80;;;1.60;;
48629;SDS011;34426;52.180;4.462;2022-07-29T13:24:32;16.33;;;2.67;;
48629;SDS011;34426;52.180;4.462;2022-07-29T13:26:59;7.78;;;1.92;;
48629;SDS011;34426;52.180;4.462;2022-07-29T13:29:28;12.48;;;2.20;;
48629;SDS011;34426;52.180;4.462;2022-07-29T13:31:56;5.57;;;2.17;;
48629;SDS011;34426;52.180;4.462;2022-07-29T13:34:23;8.63;;;2.03;;
48629;SDS011;34426;52.180;4.462;2022-07-29T13:36:51;11.13;;;1.63;;
48629;SDS011;34426;52.180;4.462;2022-07-29T13:39:19;10.77;;;1.92;;
48629;SDS011;34426;52.180;4.462;2022-07-29T13:41:47;8.30;;;2.00;;
48629;SDS011;34426;52.180;4.462;2022-07-29T13:44:14;16.08;;;2.22;;
48629;SDS011;34426;52.180;4.462;2022-07-29T13:46:46;6.65;;;1.90;;
48629;SDS011;34426;52.180;4.462;2022-07-29T13:49:13;7.17;;;1.73;;
48629;SDS011;34426;52.180;4.462;2022-07-29T13:51:40;8.48;;;2.28;;
48629;SDS011;34426;52.180;4.462;2022-07-29T13:54:09;5.68;;;1.80;;
48629;SDS011;34426;52.180;4.462;2022-07-29T13:56:36;10.05;;;1.73;;
48629;SDS011;34426;52.180;4.462;2022-07-29T13:59:03;10.20;;;1.90;;
48629;SDS011;34426;52.180;4.462;2022-07-29T14:01:31;11.10;;;1.83;;
48629;SDS011;34426;52.180;4.462;2022-07-29T14:03:59;11.13;;;2.20;;
48629;SDS011;34426;52.180;4.462;2022-07-29T14:06:26;10.90;;;2.10;;
48629;SDS011;34426;52.180;4.462;2022-07-29T14:08:53;10.27;;;1.98;;
48629;SDS011;34426;52.180;4.462;2022-07-29T14:11:21;10.25;;;2.15;;
48629;SDS011;34426;52.180;4.462;2022-07-29T14:13:49;9.57;;;1.92;;
48629;SDS011;34426;52.180;4.462;2022-07-29T14:16:16;8.55;;;2.10;;
48629;SDS011;34426;52.180;4.462;2022-07-29T14:18:43;13.10;;;1.75;;
48629;SDS011;34426;52.180;4.462;2022-07-29T14:21:13;13.95;;;2.33;;
48629;SDS011;34426;52.180;4.462;2022-07-29T14:23:42;9.48;;;1.83;;
48629;SDS011;34426;52.180;4.462;2022-07-29T14:26:09;13.45;;;2.15;;
48629;SDS011;34426;52.180;4.462;2022-07-29T14:28:37;9.57;;;1.90;;
48629;SDS011;34426;52.180;4.462;2022-07-29T14:31:05;8.18;;;2.17;;
48629;SDS011;34426;52.180;4.462;2022-07-29T14:33:32;12.25;;;1.92;;
48629;SDS011;34426;52.180;4.462;2022-07-29T14:36:00;10.30;;;1.63;;
48629;SDS011;34426;52.180;4.462;2022-07-29T14:38:29;7.97;;;1.85;;
48629;SDS011;34426;52.180;4.462;2022-07-29T14:41:02;11.55;;;2.50;;
48629;SDS011;34426;52.180;4.462;2022-07-29T14:43:32;8.70;;;1.88;;
48629;SDS011;34426;52.180;4.462;2022-07-29T14:46:00;8.98;;;1.77;;
48629;SDS011;34426;52.180;4.462;2022-07-29T14:48:28;7.72;;;2.10;;
48629;SDS011;34426;52.180;4.462;2022-07-29T14:50:56;13.13;;;2.25;;
48629;SDS011;34426;52.180;4.462;2022-07-29T14:53:24;11.82;;;1.88;;
48629;SDS011;34426;52.180;4.462;2022-07-29T14:55:53;12.02;;;1.92;;
48629;SDS011;34426;52.180;4.462;2022-07-29T14:58:21;14.30;;;1.70;;
48629;SDS011;34426;52.180;4.462;2022-07-29T15:00:48;10.18;;;2.03;;
48629;SDS011;34426;52.180;4.462;2022-07-29T15:03:17;12.65;;;2.20;;
48629;SDS011;34426;52.180;4.462;2022-07-29T15:05:45;7.93;;;1.73;;
48629;SDS011;34426;52.180;4.462;2022-07-29T15:08:12;8.90;;;1.83;;
48629;SDS011;34426;52.180;4.462;2022-07-29T15:10:39;11.55;;;1.63;;
48629;SDS011;34426;52.180;4.462;2022-07-29T15:13:08;6.45;;;1.52;;
48629;SDS011;34426;52.180;4.462;2022-07-29T15:15:35;8.52;;;1.83;;
48629;SDS011;34426;52.180;4.462;2022-07-29T15:18:04;12.18;;;1.58;;
48629;SDS011;34426;52.180;4.462;2022-07-29T15:20:31;9.48;;;2.25;;
48629;SDS011;34426;52.180;4.462;2022-07-29T15:23:00;8.68;;;1.95;;
48629;SDS011;34426;52.180;4.462;2022-07-29T15:25:30;11.93;;;2.00;;
48629;SDS011;34426;52.180;4.462;2022-07-29T15:28:01;9.57;;;2.13;;
48629;SDS011;34426;52.180;4.462;2022-07-29T15:30:31;7.85;;;1.73;;
48629;SDS011;34426;52.180;4.462;2022-07-29T15:32:59;9.07;;;1.60;;
48629;SDS011;34426;52.180;4.462;2022-07-29T15:35:27;6.15;;;1.40;;
48629;SDS011;34426;52.180;4.462;2022-07-29T15:37:54;11.45;;;2.20;;